AZE387 EDTF-LSZH
Flight info
| Callsign | AZE387 |
|---|---|
| Flight time | 0h 17m |
| Altitude | 13000 |
| Route | ELBEG DCT OSNEM |
| Aircraft | PC12/L-SDFGRWY/S |
Departure
| Time | 2026-04-30 14:33 |
|---|---|
| Airport | Freiburg im Breisgau Airfield (EDTF) |
Arrival
| Time | 2026-04-30 14:50 |
|---|---|
| Airport | Zürich Airport (LSZH) |
| Time | Latitude | Longitude | Altitude | Speed | Heading |
|---|---|---|---|---|---|
| 2026-04-30 14:15 | 48.02257 | 7.83509 | 817 ft | 0 kts | 79° |
| 2026-04-30 14:29 | 48.02243 | 7.83397 | 822 ft | 15 kts | 251° |
| 2026-04-30 14:29 | 48.02339 | 7.83226 | 820 ft | 27 kts | 341° |
| 2026-04-30 14:30 | 48.02774 | 7.82989 | 815 ft | 0 kts | 155° |
| 2026-04-30 14:31 | 48.02771 | 7.82991 | 815 ft | 3 kts | 157° |
| 2026-04-30 14:31 | 48.02561 | 7.83104 | 819 ft | 64 kts | 161° |
| 2026-04-30 14:32 | 48.01287 | 7.83694 | 1071 ft | 115 kts | 160° |
| 2026-04-30 14:32 | 48.00486 | 7.83950 | 1288 ft | 120 kts | 167° |
| 2026-04-30 14:32 | 47.99621 | 7.83845 | 1334 ft | 142 kts | 210° |
| 2026-04-30 14:33 | 47.98927 | 7.82769 | 1412 ft | 147 kts | 224° |
| 2026-04-30 14:33 | 47.96945 | 7.81628 | 2068 ft | 150 kts | 188° |
| 2026-04-30 14:33 | 47.95956 | 7.81390 | 2673 ft | 141 kts | 186° |
| 2026-04-30 14:34 | 47.94967 | 7.81143 | 3048 ft | 147 kts | 188° |
| 2026-04-30 14:34 | 47.93962 | 7.80893 | 3591 ft | 145 kts | 185° |
| 2026-04-30 14:34 | 47.92934 | 7.80640 | 4056 ft | 152 kts | 181° |
| 2026-04-30 14:34 | 47.91914 | 7.80388 | 4480 ft | 147 kts | 180° |
| 2026-04-30 14:35 | 47.89847 | 7.79882 | 5238 ft | 152 kts | 182° |
| 2026-04-30 14:35 | 47.88807 | 7.79625 | 5654 ft | 153 kts | 182° |
| 2026-04-30 14:35 | 47.87798 | 7.79377 | 6564 ft | 145 kts | 186° |
| 2026-04-30 14:36 | 47.86782 | 7.79129 | 7243 ft | 150 kts | 186° |
| 2026-04-30 14:36 | 47.85743 | 7.78875 | 7993 ft | 152 kts | 185° |
| 2026-04-30 14:36 | 47.84680 | 7.78618 | 8720 ft | 157 kts | 186° |
| 2026-04-30 14:36 | 47.83593 | 7.78347 | 9449 ft | 161 kts | 184° |
| 2026-04-30 14:37 | 47.82433 | 7.78073 | 9903 ft | 184 kts | 184° |
| 2026-04-30 14:37 | 47.81048 | 7.77740 | 9982 ft | 220 kts | 186° |
| 2026-04-30 14:37 | 47.79449 | 7.77332 | 10034 ft | 241 kts | 187° |
| 2026-04-30 14:37 | 47.77757 | 7.76908 | 10189 ft | 249 kts | 187° |
| 2026-04-30 14:38 | 47.76007 | 7.76485 | 10213 ft | 260 kts | 187° |
| 2026-04-30 14:38 | 47.74200 | 7.76046 | 10211 ft | 265 kts | 187° |
| 2026-04-30 14:38 | 47.72375 | 7.75648 | 10200 ft | 264 kts | 179° |
| 2026-04-30 14:38 | 47.70638 | 7.76313 | 10188 ft | 258 kts | 148° |
| 2026-04-30 14:39 | 47.69338 | 7.78082 | 10185 ft | 255 kts | 122° |
| 2026-04-30 14:39 | 47.68680 | 7.80493 | 10193 ft | 253 kts | 104° |
| 2026-04-30 14:39 | 47.68251 | 7.83032 | 10202 ft | 255 kts | 103° |
| 2026-04-30 14:40 | 47.67374 | 7.88072 | 10208 ft | 252 kts | 103° |
| 2026-04-30 14:40 | 47.66922 | 7.90591 | 10207 ft | 253 kts | 104° |
| 2026-04-30 14:40 | 47.66473 | 7.93115 | 10214 ft | 253 kts | 103° |
| 2026-04-30 14:40 | 47.66053 | 7.95648 | 10218 ft | 253 kts | 100° |
| 2026-04-30 14:41 | 47.65744 | 7.98214 | 10221 ft | 253 kts | 98° |
| 2026-04-30 14:41 | 47.65429 | 8.00772 | 10223 ft | 252 kts | 100° |
| 2026-04-30 14:41 | 47.65074 | 8.03319 | 10226 ft | 252 kts | 101° |
| 2026-04-30 14:41 | 47.64716 | 8.05876 | 10232 ft | 254 kts | 100° |
| 2026-04-30 14:42 | 47.64364 | 8.08443 | 10235 ft | 254 kts | 101° |
| 2026-04-30 14:42 | 47.64015 | 8.11012 | 10173 ft | 254 kts | 100° |
| 2026-04-30 14:42 | 47.63660 | 8.13601 | 9927 ft | 259 kts | 100° |
| 2026-04-30 14:42 | 47.63297 | 8.16231 | 9421 ft | 260 kts | 101° |
| 2026-04-30 14:43 | 47.62938 | 8.18806 | 8899 ft | 244 kts | 101° |
| 2026-04-30 14:43 | 47.62608 | 8.21211 | 8398 ft | 231 kts | 101° |
| 2026-04-30 14:43 | 47.62295 | 8.23474 | 7882 ft | 222 kts | 101° |
| 2026-04-30 14:43 | 47.61993 | 8.25663 | 7338 ft | 205 kts | 101° |
| 2026-04-30 14:44 | 47.61710 | 8.27692 | 6788 ft | 195 kts | 101° |
| 2026-04-30 14:44 | 47.61439 | 8.29644 | 6232 ft | 185 kts | 101° |
| 2026-04-30 14:44 | 47.61179 | 8.31501 | 5655 ft | 178 kts | 99° |
| 2026-04-30 14:44 | 47.60941 | 8.33213 | 5302 ft | 167 kts | 99° |
| 2026-04-30 14:45 | 47.60698 | 8.34979 | 5092 ft | 179 kts | 99° |
| 2026-04-30 14:45 | 47.60254 | 8.36637 | 4845 ft | 178 kts | 117° |
| 2026-04-30 14:45 | 47.59478 | 8.38107 | 4605 ft | 182 kts | 130° |
| 2026-04-30 14:45 | 47.58569 | 8.39397 | 4372 ft | 181 kts | 130° |
| 2026-04-30 14:46 | 47.57646 | 8.40671 | 4250 ft | 180 kts | 131° |
| 2026-04-30 14:46 | 47.56731 | 8.41926 | 4240 ft | 181 kts | 131° |
| 2026-04-30 14:46 | 47.55794 | 8.43220 | 4067 ft | 181 kts | 130° |
| 2026-04-30 14:46 | 47.55182 | 8.44054 | 3942 ft | 181 kts | 131° |
| 2026-04-30 14:47 | 47.53942 | 8.45758 | 3489 ft | 179 kts | 130° |
| 2026-04-30 14:47 | 47.53020 | 8.47012 | 2984 ft | 180 kts | 130° |
| 2026-04-30 14:47 | 47.52115 | 8.48266 | 2540 ft | 175 kts | 130° |
| 2026-04-30 14:47 | 47.51245 | 8.49459 | 2294 ft | 164 kts | 130° |
| 2026-04-30 14:48 | 47.50472 | 8.50513 | 2072 ft | 144 kts | 132° |
| 2026-04-30 14:48 | 47.49765 | 8.51475 | 1847 ft | 137 kts | 130° |
| 2026-04-30 14:48 | 47.49145 | 8.52300 | 1627 ft | 104 kts | 130° |
| 2026-04-30 14:48 | 47.48650 | 8.52993 | 1524 ft | 97 kts | 127° |
| 2026-04-30 14:49 | 47.48147 | 8.53681 | 1429 ft | 99 kts | 131° |
| 2026-04-30 14:49 | 47.47649 | 8.54378 | 1391 ft | 94 kts | 128° |
| 2026-04-30 14:49 | 47.47221 | 8.54960 | 1387 ft | 72 kts | 135° |
| 2026-04-30 14:49 | 47.46870 | 8.55439 | 1392 ft | 65 kts | 137° |
| 2026-04-30 14:50 | 47.46372 | 8.55772 | 1393 ft | 17 kts | 144° |
| 2026-04-30 14:50 | 47.46265 | 8.55897 | 1398 ft | 26 kts | 140° |
| 2026-04-30 14:51 | 47.45989 | 8.56295 | 1399 ft | 25 kts | 138° |
| 2026-04-30 14:51 | 47.45837 | 8.56485 | 1396 ft | 22 kts | 132° |
| 2026-04-30 14:51 | 47.45777 | 8.56933 | 1392 ft | 14 kts | 103° |
| 2026-04-30 14:52 | 47.45702 | 8.57036 | 1392 ft | 20 kts | 184° |
| 2026-04-30 14:52 | 47.45525 | 8.57119 | 1394 ft | 11 kts | 131° |
| 2026-04-30 14:52 | 47.45472 | 8.57204 | 1393 ft | 7 kts | 151° |
| 2026-04-30 14:53 | 47.45389 | 8.57294 | 1396 ft | 2 kts | 185° |
| 2026-04-30 14:53 | 47.45387 | 8.57293 | 1393 ft | 0 kts | 186° |